Time;durP1;ratioP1;P1;durP2;ratioP2;P2;SDS_P1;SDS_P2;PMS_P1;PMS_P2;Temp;Humidity;BMP_temperature;BMP_pressure;BME280_temperature;BME280_humidity;BME280_pressure;Samples;Min_cycle;Max_cycle;Signal;HPM_P1;HPM_P2
2023/02/22 00:00:26;;;;;;;229.65;42.85;;;8.50;99.90;;;;;;6122278;23;20300;-72
2023/02/22 00:02:58;;;;;;;324.65;52.95;;;8.50;99.90;;;;;;6121205;23;20006;-72
2023/02/22 00:05:25;;;;;;;177.38;44.47;;;8.40;99.90;;;;;;6121892;23;20196;-72
2023/02/22 00:07:52;;;;;;;168.75;43.15;;;8.50;99.90;;;;;;6121837;23;20017;-72
2023/02/22 00:10:22;;;;;;;166.80;43.92;;;8.60;99.90;;;;;;6095996;23;20002;-72
2023/02/22 00:12:51;;;;;;;121.72;41.28;;;8.60;99.90;;;;;;6120011;23;20013;-71
2023/02/22 00:15:19;;;;;;;142.57;43.38;;;8.60;99.90;;;;;;6119198;23;20001;-71
2023/02/22 00:17:45;;;;;;;272.48;48.72;;;8.40;99.90;;;;;;6093952;23;20014;-72
2023/02/22 00:20:13;;;;;;;204.35;43.78;;;8.40;99.90;;;;;;6094379;23;20399;-72
2023/02/22 00:22:41;;;;;;;152.63;41.70;;;8.40;99.90;;;;;;6120475;23;19998;-72
2023/02/22 00:25:08;;;;;;;163.93;42.80;;;8.50;99.90;;;;;;6121999;23;20002;-72
2023/02/22 00:27:34;;;;;;;520.63;67.38;;;8.50;99.90;;;;;;6122126;23;20005;-72
2023/02/22 00:29:59;;;;;;;197.02;42.88;;;8.50;99.90;;;;;;6096276;23;20010;-71
2023/02/22 00:32:25;;;;;;;220.98;50.05;;;8.40;99.90;;;;;;6119386;23;20418;-72
2023/02/22 00:34:52;;;;;;;703.15;70.55;;;8.50;99.90;;;;;;6118832;23;20002;-72
2023/02/22 00:37:19;;;;;;;210.27;46.70;;;8.50;99.90;;;;;;6121498;23;20002;-72
2023/02/22 00:39:48;;;;;;;146.10;42.53;;;8.50;99.90;;;;;;6121241;23;20002;-72
2023/02/22 00:42:16;;;;;;;564.60;69.28;;;8.40;99.90;;;;;;6120681;23;20034;-72
2023/02/22 00:44:41;;;;;;;483.45;58.83;;;8.40;99.90;;;;;;6121172;23;20006;-72
2023/02/22 00:47:07;;;;;;;161.60;42.70;;;8.40;99.90;;;;;;6121695;23;20010;-72
2023/02/22 00:49:33;;;;;;;190.93;44.80;;;8.50;99.90;;;;;;6121817;23;20017;-72
2023/02/22 00:51:59;;;;;;;178.30;43.40;;;8.40;99.90;;;;;;6119490;23;20014;-72
2023/02/22 00:54:25;;;;;;;431.85;60.17;;;8.40;99.90;;;;;;6118202;23;20081;-72
2023/02/22 00:56:51;;;;;;;165.20;45.83;;;8.40;99.90;;;;;;6121433;23;20006;-72
2023/02/22 00:59:17;;;;;;;163.32;46.42;;;8.50;99.90;;;;;;6121547;23;20073;-72
2023/02/22 01:01:43;;;;;;;428.98;58.42;;;8.60;99.90;;;;;;6096285;23;20431;-72
2023/02/22 01:04:08;;;;;;;404.95;56.55;;;8.60;99.90;;;;;;6122281;23;19998;-72
2023/02/22 01:06:34;;;;;;;407.60;53.00;;;8.50;99.90;;;;;;6123040;23;20009;-72
2023/02/22 01:09:01;;;;;;;176.18;46.80;;;8.50;99.90;;;;;;6122090;23;20438;-71
2023/02/22 01:11:27;;;;;;;297.10;48.00;;;8.50;99.90;;;;;;6123452;23;20014;-72
2023/02/22 01:13:54;;;;;;;253.68;51.92;;;8.50;99.90;;;;;;6123476;23;20009;-72
2023/02/22 01:16:19;;;;;;;315.13;56.38;;;8.50;99.90;;;;;;6123610;23;20308;-72
2023/02/22 01:18:45;;;;;;;520.22;63.88;;;8.50;99.90;;;;;;6097575;23;20094;-72
2023/02/22 01:21:11;;;;;;;216.60;49.50;;;8.50;99.90;;;;;;6120340;23;20408;-72
2023/02/22 01:23:36;;;;;;;251.60;51.13;;;8.50;99.90;;;;;;6122770;23;20424;-72
2023/02/22 01:26:04;;;;;;;194.23;49.38;;;8.50;99.90;;;;;;6123944;23;19998;-72
2023/02/22 01:28:33;;;;;;;319.65;60.78;;;8.50;99.90;;;;;;6123674;23;20102;-72
2023/02/22 01:31:00;;;;;;;344.38;57.13;;;8.50;99.90;;;;;;6123439;23;20069;-72
2023/02/22 01:33:26;;;;;;;167.65;45.00;;;8.50;99.90;;;;;;6121287;23;20006;-72
2023/02/22 01:35:51;;;;;;;824.30;95.93;;;8.50;99.90;;;;;;6097205;23;20331;-71
2023/02/22 01:38:17;;;;;;;295.02;51.92;;;8.50;99.90;;;;;;6123650;23;20037;-71
2023/02/22 01:40:47;;;;;;;300.10;56.78;;;8.40;99.90;;;;;;6120667;23;20041;-72
2023/02/22 01:43:31;;;;;;;400.35;58.33;;;8.40;99.90;;;;;;6122283;23;20001;-72
2023/02/22 01:46:02;;;;;;;260.25;51.20;;;8.50;99.90;;;;;;6123937;23;20009;-72
2023/02/22 01:48:46;;;;;;;197.52;48.75;;;8.60;99.90;;;;;;6096146;23;20399;-72
2023/02/22 01:51:19;;;;;;;173.63;43.60;;;8.60;99.90;;;;;;6123114;23;20010;-72
2023/02/22 01:53:55;;;;;;;;;;;8.50;99.90;;;;;;6123022;23;20017;-72
2023/02/22 01:56:24;;;;;;;576.10;66.70;;;8.50;99.90;;;;;;6121702;23;19908;-71
2023/02/22 01:59:05;;;;;;;181.20;41.47;;;8.60;99.90;;;;;;6122799;23;20427;-72
2023/02/22 02:01:32;;;;;;;212.98;44.35;;;8.50;99.90;;;;;;6122769;23;20526;-72
2023/02/22 02:04:01;;;;;;;186.48;42.75;;;8.50;99.90;;;;;;6123106;23;20085;-72
2023/02/22 02:06:30;;;;;;;152.70;42.13;;;8.50;99.90;;;;;;6120193;23;20012;-72
2023/02/22 02:09:12;;;;;;;212.60;44.30;;;8.40;99.90;;;;;;6123435;23;20088;-72
2023/02/22 02:11:40;;;;;;;419.20;54.60;;;8.40;99.90;;;;;;6122824;23;20014;-71
2023/02/22 02:14:08;;;;;;;123.15;38.55;;;8.40;99.90;;;;;;6122822;23;20011;-72
2023/02/22 02:16:47;;;;;;;396.33;55.90;;;8.40;99.90;;;;;;6121311;23;20476;-72
2023/02/22 02:19:24;;;;;;;199.75;40.53;;;8.30;99.90;;;;;;6122711;23;20061;-71
2023/02/22 02:22:15;;;;;;;255.13;46.60;;;8.20;99.90;;;;;;6094412;23;20053;-71
2023/02/22 02:24:49;;;;;;;552.55;69.50;;;8.30;99.90;;;;;;6120744;23;20083;-71
2023/02/22 02:27:16;;;;;;;138.48;36.08;;;8.30;99.90;;;;;;6122443;23;20041;-71
2023/02/22 02:30:01;;;;;;;214.50;40.53;;;8.20;99.90;;;;;;6123266;23;20077;-71
2023/02/22 02:32:50;;;;;;;97.32;33.03;;;8.10;99.90;;;;;;6121348;23;20683;-72
2023/02/22 02:35:36;;;;;;;124.53;31.95;;;8.20;99.90;;;;;;6121645;23;20025;-72
2023/02/22 02:38:23;;;;;;;150.48;33.60;;;8.10;99.90;;;;;;6122512;23;20006;-72
2023/02/22 02:41:13;;;;;;;403.00;53.30;;;7.90;99.90;;;;;;6117904;23;20014;-72
2023/02/22 02:43:53;;;;;;;151.75;37.33;;;8.00;99.90;;;;;;6120006;23;20016;-72
2023/02/22 02:46:50;;;;;;;105.18;33.08;;;8.00;99.90;;;;;;6096837;23;20010;-71
2023/02/22 02:49:22;;;;;;;115.00;34.28;;;8.00;99.90;;;;;;6120823;23;20010;-72
2023/02/22 02:51:51;;;;;;;116.28;35.45;;;8.10;99.90;;;;;;6095933;23;20021;-71
2023/02/22 02:54:19;;;;;;;238.68;40.13;;;8.20;99.90;;;;;;6122717;23;20010;-71
2023/02/22 02:56:46;;;;;;;138.32;37.65;;;8.10;99.90;;;;;;6122547;23;20346;-72
2023/02/22 02:59:25;;;;;;;119.22;31.73;;;8.10;99.90;;;;;;6123348;23;20002;-72
2023/02/22 03:02:23;;;;;;;170.85;36.83;;;8.00;99.90;;;;;;6120903;23;20370;-72
2023/02/22 03:05:23;;;;;;;235.68;41.60;;;7.90;99.90;;;;;;6122009;23;20487;-72
2023/02/22 03:08:08;;;;;;;159.30;35.95;;;8.00;99.90;;;;;;6111711;23;20006;-72
2023/02/22 03:10:45;;;;;;;114.15;34.20;;;8.10;99.90;;;;;;6122703;23;20002;-72
2023/02/22 03:13:39;;;;;;;146.98;38.58;;;8.10;99.90;;;;;;6096657;23;20152;-71
2023/02/22 03:16:26;;;;;;;659.70;74.75;;;7.90;99.90;;;;;;6122100;23;20006;-72
2023/02/22 03:19:12;;;;;;;154.75;34.75;;;7.80;99.90;;;;;;6096903;23;20013;-72
2023/02/22 03:22:19;;;;;;;181.75;37.90;;;7.90;99.90;;;;;;6122713;23;20362;-72
2023/02/22 03:25:06;;;;;;;127.43;35.17;;;7.90;99.90;;;;;;6122575;23;20037;-72
2023/02/22 03:27:46;;;;;;;219.20;41.40;;;7.90;99.90;;;;;;6121725;23;20056;-72
2023/02/22 03:30:18;;;;;;;203.02;36.22;;;7.90;99.90;;;;;;6120592;23;20061;-72
2023/02/22 03:32:49;;;;;;;153.52;33.85;;;7.80;99.90;;;;;;6094870;23;20327;-72
2023/02/22 03:35:22;;;;;;;157.85;35.03;;;8.00;99.90;;;;;;6122918;23;20006;-72
2023/02/22 03:37:55;;;;;;;130.45;33.58;;;8.00;99.90;;;;;;6121901;23;20006;-72
2023/02/22 03:40:27;;;;;;;210.95;38.35;;;8.10;99.90;;;;;;6121247;23;20499;-72
2023/02/22 03:42:59;;;;;;;141.38;37.42;;;8.10;99.90;;;;;;6121003;23;20002;-72
2023/02/22 03:45:28;;;;;;;212.85;39.85;;;8.00;99.90;;;;;;6093744;23;20017;-72
2023/02/22 03:48:26;;;;;;;411.33;54.72;;;7.80;99.90;;;;;;6093865;23;20025;-72
2023/02/22 03:50:52;;;;;;;135.35;33.50;;;7.80;99.90;;;;;;6121877;23;20002;-72
2023/02/22 03:53:21;;;;;;;131.30;34.70;;;7.90;99.90;;;;;;6122094;23;20010;-72
2023/02/22 03:55:51;;;;;;;151.48;38.10;;;7.80;99.90;;;;;;6122264;23;19998;-72
2023/02/22 03:58:20;;;;;;;101.57;30.77;;;7.90;99.90;;;;;;6121672;23;20322;-72
2023/02/22 04:00:46;;;;;;;141.57;37.58;;;8.00;99.90;;;;;;6118898;23;20040;-72
2023/02/22 04:03:12;;;;;;;99.20;31.73;;;7.90;99.90;;;;;;6120755;23;20006;-72
2023/02/22 04:05:37;;;;;;;125.32;34.53;;;7.80;99.90;;;;;;6122169;23;20106;-72
2023/02/22 04:08:05;;;;;;;107.40;31.55;;;7.80;99.90;;;;;;6122819;23;20001;-72
2023/02/22 04:10:32;;;;;;;203.30;43.00;;;7.90;99.90;;;;;;6119815;23;20006;-71
2023/02/22 04:12:58;;;;;;;91.60;32.88;;;7.90;99.90;;;;;;6120666;23;20006;-71
2023/02/22 04:15:24;;;;;;;104.20;33.38;;;7.90;99.90;;;;;;6122385;23;20006;-72
2023/02/22 04:17:51;;;;;;;129.23;34.00;;;7.80;99.90;;;;;;6124289;23;20334;-72
2023/02/22 04:20:18;;;;;;;211.82;37.15;;;7.80;99.90;;;;;;6099422;23;20002;-72
2023/02/22 04:22:45;;;;;;;90.22;28.80;;;7.70;99.90;;;;;;6125048;23;20077;-72
2023/02/22 04:25:10;;;;;;;165.60;35.72;;;7.70;99.90;;;;;;6097327;23;20010;-72
2023/02/22 04:27:36;;;;;;;110.78;32.97;;;7.80;99.90;;;;;;6123892;23;20006;-72
2023/02/22 04:30:02;;;;;;;172.02;38.30;;;7.80;99.90;;;;;;6124995;23;20077;-72
2023/02/22 04:32:28;;;;;;;137.18;37.85;;;7.80;99.90;;;;;;6124488;23;20591;-72
2023/02/22 04:34:53;;;;;;;275.25;40.72;;;7.90;99.90;;;;;;6124666;23;20006;-72
2023/02/22 04:37:19;;;;;;;116.90;33.38;;;7.80;99.90;;;;;;6124847;23;20006;-72
2023/02/22 04:39:45;;;;;;;110.03;31.45;;;7.80;99.90;;;;;;6123370;23;20010;-72
2023/02/22 04:42:10;;;;;;;93.95;32.78;;;7.90;99.90;;;;;;6124293;23;20336;-72
2023/02/22 04:44:36;;;;;;;95.68;31.00;;;7.90;99.90;;;;;;6123510;23;20077;-72
2023/02/22 04:47:01;;;;;;;101.63;30.92;;;7.90;99.90;;;;;;6124430;23;20070;-72
2023/02/22 04:49:27;;;;;;;123.57;32.85;;;7.80;99.90;;;;;;6122642;23;20009;-72
2023/02/22 04:51:53;;;;;;;143.75;33.05;;;7.80;99.90;;;;;;6123682;23;20014;-72
2023/02/22 04:54:18;;;;;;;87.50;30.38;;;7.70;99.90;;;;;;6123855;23;20002;-72
2023/02/22 04:56:45;;;;;;;101.20;31.27;;;7.80;99.90;;;;;;6124975;23;20076;-72
2023/02/22 04:59:10;;;;;;;164.55;34.80;;;7.80;99.90;;;;;;6122596;23;20076;-72
2023/02/22 05:01:36;;;;;;;83.78;29.55;;;7.80;99.90;;;;;;6124547;23;20002;-72
2023/02/22 05:04:07;;;;;;;87.55;30.20;;;7.90;99.90;;;;;;6097364;23;20084;-72
2023/02/22 05:06:33;;;;;;;136.43;33.60;;;8.00;99.90;;;;;;6123166;23;20502;-72
2023/02/22 05:08:58;;;;;;;188.52;39.97;;;8.00;99.90;;;;;;6098687;23;20005;-72
2023/02/22 05:11:24;;;;;;;223.02;41.45;;;8.10;99.90;;;;;;6124336;23;20021;-72
2023/02/22 05:13:50;;;;;;;110.43;32.67;;;8.10;99.90;;;;;;6122781;23;20120;-71
2023/02/22 05:16:16;;;;;;;143.20;35.00;;;8.10;99.90;;;;;;6124838;23;20141;-72
2023/02/22 05:18:41;;;;;;;115.30;32.08;;;8.00;99.90;;;;;;6124077;23;20009;-72
2023/02/22 05:21:07;;;;;;;101.15;31.83;;;8.00;99.90;;;;;;6124007;23;20037;-72
2023/02/22 05:23:33;;;;;;;84.18;29.55;;;8.00;99.90;;;;;;6124513;23;20347;-72
2023/02/22 05:25:58;;;;;;;77.13;27.90;;;7.90;99.90;;;;;;6124731;23;20013;-71
2023/02/22 05:28:24;;;;;;;72.25;27.65;;;7.90;99.90;;;;;;6123964;23;19998;-72
2023/02/22 05:30:50;;;;;;;125.93;31.90;;;7.90;99.90;;;;;;6121260;23;20060;-72
2023/02/22 05:33:16;;;;;;;100.65;28.10;;;8.00;99.90;;;;;;6123310;23;20033;-72
2023/02/22 05:35:42;;;;;;;89.20;28.45;;;7.80;99.90;;;;;;6125275;23;19998;-72
2023/02/22 05:38:08;;;;;;;111.00;27.98;;;7.80;99.90;;;;;;6124880;23;20006;-72
2023/02/22 05:40:34;;;;;;;275.08;40.67;;;7.80;99.90;;;;;;6123835;23;20036;-72
2023/02/22 05:43:01;;;;;;;97.07;29.13;;;7.70;99.90;;;;;;6124453;23;20006;-72
2023/02/22 05:45:27;;;;;;;157.98;34.13;;;7.80;99.90;;;;;;6120823;23;20006;-72
2023/02/22 05:47:53;;;;;;;82.07;27.92;;;7.90;99.90;;;;;;6125589;23;20014;-72
2023/02/22 05:50:20;;;;;;;126.03;29.08;;;7.90;99.90;;;;;;6126541;23;20021;-72
2023/02/22 05:52:47;;;;;;;85.78;28.02;;;8.00;99.90;;;;;;6125469;23;20149;-72
2023/02/22 05:55:15;;;;;;;87.75;28.48;;;7.90;99.90;;;;;;6125342;23;20002;-72
2023/02/22 05:57:41;;;;;;;82.20;28.73;;;7.90;99.90;;;;;;6126130;23;20020;-72
2023/02/22 06:00:08;;;;;;;68.25;25.60;;;7.90;99.90;;;;;;6125407;23;20006;-71
2023/02/22 06:02:34;;;;;;;90.13;28.95;;;7.80;99.90;;;;;;6126169;23;20045;-71
2023/02/22 06:04:59;;;;;;;122.88;31.48;;;7.80;99.90;;;;;;6125825;23;20006;-72
2023/02/22 06:07:26;;;;;;;92.03;29.67;;;7.90;99.90;;;;;;6126305;23;20081;-72
2023/02/22 06:09:52;;;;;;;163.70;34.85;;;7.90;99.90;;;;;;6125167;23;20002;-72
2023/02/22 06:12:18;;;;;;;81.20;25.85;;;7.90;99.90;;;;;;6126003;23;20045;-72
2023/02/22 06:14:45;;;;;;;86.10;28.48;;;7.90;99.90;;;;;;6124560;23;20002;-72
2023/02/22 06:17:13;;;;;;;73.68;27.85;;;7.70;99.90;;;;;;6125316;23;20431;-72
2023/02/22 06:19:42;;;;;;;100.45;29.70;;;7.80;99.90;;;;;;6126290;23;20373;-72
2023/02/22 06:22:14;;;;;;;125.00;30.00;;;7.80;99.90;;;;;;6098380;23;20006;-72
2023/02/22 06:24:40;;;;;;;72.72;26.40;;;7.70;99.90;;;;;;6124479;23;19998;-72
2023/02/22 06:27:05;;;;;;;68.03;26.48;;;7.60;99.90;;;;;;6126430;23;20033;-72
2023/02/22 06:29:31;;;;;;;55.17;23.80;;;7.70;99.90;;;;;;6126342;23;20073;-72
2023/02/22 06:31:57;;;;;;;95.15;27.30;;;7.70;99.90;;;;;;6122988;23;20018;-72
2023/02/22 06:34:22;;;;;;;66.55;26.65;;;7.70;99.90;;;;;;6125809;23;20428;-72
2023/02/22 06:36:48;;;;;;;104.38;29.77;;;7.80;99.90;;;;;;6125958;23;20006;-72
2023/02/22 06:39:15;;;;;;;65.93;25.20;;;7.70;99.90;;;;;;6124078;23;20006;-72
2023/02/22 06:41:41;;;;;;;74.82;27.42;;;7.70;99.90;;;;;;6126068;23;20001;-72
2023/02/22 06:44:08;;;;;;;146.05;37.08;;;7.60;99.90;;;;;;6124337;23;20485;-72
2023/02/22 06:46:34;;;;;;;85.03;29.52;;;7.50;99.90;;;;;;6124369;23;20200;-71
2023/02/22 06:48:59;;;;;;;77.20;29.15;;;7.50;99.90;;;;;;6124131;23;20013;-72
2023/02/22 06:51:29;;;;;;;63.80;26.52;;;7.60;99.90;;;;;;6124824;23;20053;-72
2023/02/22 06:53:55;;;;;;;77.45;28.05;;;7.50;99.90;;;;;;6098485;23;20485;-72
2023/02/22 06:56:20;;;;;;;72.97;27.80;;;7.60;99.90;;;;;;6123574;23;20002;-71
2023/02/22 06:58:48;;;;;;;66.80;27.23;;;7.60;99.90;;;;;;6124106;23;20010;-72
2023/02/22 07:01:14;;;;;;;59.58;25.02;;;7.60;99.90;;;;;;6125299;23;20308;-72
2023/02/22 07:03:39;;;;;;;73.65;29.42;;;7.60;99.90;;;;;;6124822;23;20008;-72
2023/02/22 07:06:07;;;;;;;80.28;29.33;;;7.70;99.90;;;;;;6124661;23;20006;-72
2023/02/22 07:08:32;;;;;;;179.35;40.55;;;7.60;99.90;;;;;;6096689;23;19998;-72
2023/02/22 07:10:58;;;;;;;67.63;27.88;;;7.60;99.90;;;;;;6124499;23;20010;-72
2023/02/22 07:13:24;;;;;;;57.22;25.75;;;7.60;99.90;;;;;;6125014;23;20006;-72
2023/02/22 07:15:49;;;;;;;70.88;27.92;;;7.70;99.90;;;;;;6123715;23;20089;-72
2023/02/22 07:18:15;;;;;;;65.13;25.05;;;7.70;99.90;;;;;;6124757;23;20083;-72
2023/02/22 07:20:41;;;;;;;61.33;26.13;;;7.50;99.90;;;;;;6125665;23;20025;-72
2023/02/22 07:23:07;;;;;;;63.72;26.85;;;7.60;99.90;;;;;;6124995;23;20002;-72
2023/02/22 07:25:33;;;;;;;73.97;26.92;;;7.70;99.90;;;;;;6124671;23;20002;-72
2023/02/22 07:27:59;;;;;;;73.95;28.05;;;7.60;99.90;;;;;;6122282;23;20526;-71
2023/02/22 07:30:31;;;;;;;75.05;27.55;;;7.70;99.90;;;;;;6122180;23;20009;-71
2023/02/22 07:32:58;;;;;;;67.43;27.67;;;7.70;99.90;;;;;;6124586;23;20044;-72
2023/02/22 07:35:45;;;;;;;65.50;26.63;;;7.70;99.90;;;;;;6122099;23;20463;-71
2023/02/22 07:38:12;;;;;;;54.28;24.60;;;7.70;99.90;;;;;;6124213;23;20076;-72
2023/02/22 07:40:38;;;;;;;57.08;24.92;;;7.70;99.90;;;;;;6097550;23;20002;-71
2023/02/22 07:43:24;;;;;;;59.05;25.80;;;7.60;99.90;;;;;;6124606;23;20510;-72
2023/02/22 07:45:52;;;;;;;55.65;24.48;;;7.60;99.90;;;;;;6122174;23;20010;-72
2023/02/22 07:48:20;;;;;;;47.83;23.48;;;7.50;99.90;;;;;;6123905;23;20002;-72
2023/02/22 07:50:46;;;;;;;62.55;26.50;;;7.60;99.90;;;;;;6123019;23;20010;-72
2023/02/22 07:53:14;;;;;;;55.17;24.38;;;7.50;99.90;;;;;;6124943;23;20431;-72
2023/02/22 07:55:40;;;;;;;58.42;26.25;;;7.50;99.90;;;;;;6124412;23;20010;-72
2023/02/22 07:58:07;;;;;;;50.30;23.90;;;7.60;99.90;;;;;;6125107;23;20169;-72
2023/02/22 08:00:38;;;;;;;55.53;25.98;;;7.60;99.90;;;;;;6125275;23;20006;-72
2023/02/22 08:03:06;;;;;;;67.50;28.50;;;7.70;99.90;;;;;;6124269;23;20424;-72
2023/02/22 08:05:34;;;;;;;63.92;26.33;;;7.70;99.90;;;;;;6122741;23;20061;-72
2023/02/22 08:08:01;;;;;;;49.88;24.23;;;7.70;99.90;;;;;;6124189;23;20002;-72
2023/02/22 08:10:27;;;;;;;51.67;23.65;;;7.70;99.90;;;;;;6123066;23;20429;-72
2023/02/22 08:12:53;;;;;;;45.15;21.40;;;7.70;99.90;;;;;;6123689;23;20069;-72
2023/02/22 08:15:23;;;;;;;40.85;21.00;;;7.70;99.90;;;;;;6125255;23;20013;-72
2023/02/22 08:17:49;;;;;;;42.40;21.67;;;7.70;99.90;;;;;;6124211;23;20016;-72
2023/02/22 08:20:15;;;;;;;40.22;20.83;;;7.80;99.90;;;;;;6122194;23;20466;-72
2023/02/22 08:22:44;;;;;;;44.92;20.55;;;7.80;99.90;;;;;;6122900;23;20342;-73
2023/02/22 08:25:12;;;;;;;44.58;22.75;;;7.70;99.90;;;;;;6121452;23;20053;-73
2023/02/22 08:27:38;;;;;;;42.75;21.20;;;7.80;99.90;;;;;;6120665;23;20009;-73
2023/02/22 08:30:04;;;;;;;40.15;20.45;;;7.90;99.90;;;;;;6123518;23;19998;-72
2023/02/22 08:32:30;;;;;;;35.70;19.98;;;7.80;99.90;;;;;;6124595;23;20014;-71
2023/02/22 08:34:55;;;;;;;35.95;20.10;;;8.00;99.90;;;;;;6124489;23;20121;-72
2023/02/22 08:37:21;;;;;;;32.78;18.98;;;7.90;99.90;;;;;;6123126;23;20009;-72
2023/02/22 08:39:47;;;;;;;34.97;19.30;;;8.00;99.90;;;;;;6124652;23;20006;-72
2023/02/22 08:42:12;;;;;;;35.53;19.50;;;8.10;99.90;;;;;;6122639;23;20006;-72
2023/02/22 08:44:38;;;;;;;34.65;19.67;;;8.10;99.90;;;;;;6124872;23;20002;-72
2023/02/22 08:47:05;;;;;;;34.80;19.55;;;8.20;99.90;;;;;;6123337;23;20222;-72
2023/02/22 08:49:31;;;;;;;29.85;17.30;;;8.30;99.90;;;;;;6123932;23;20033;-72
2023/02/22 08:51:57;;;;;;;32.00;18.90;;;8.30;99.90;;;;;;6123383;23;20016;-72
2023/02/22 08:54:22;;;;;;;30.48;18.60;;;8.20;99.90;;;;;;6123160;23;20005;-71
2023/02/22 08:56:49;;;;;;;33.70;18.98;;;8.40;99.90;;;;;;6099655;23;20037;-71
2023/02/22 08:59:15;;;;;;;34.05;19.40;;;8.40;99.90;;;;;;6122619;23;20591;-71
2023/02/22 09:01:41;;;;;;;30.90;18.33;;;8.60;99.90;;;;;;6123811;23;20006;-71
2023/02/22 09:04:07;;;;;;;30.83;17.63;;;8.60;99.90;;;;;;6123618;23;20002;-71
2023/02/22 09:06:32;;;;;;;31.90;18.35;;;8.60;99.90;;;;;;6123778;23;20005;-72
2023/02/22 09:08:58;;;;;;;27.83;17.88;;;8.80;99.90;;;;;;6123036;23;20005;-72
2023/02/22 09:11:23;;;;;;;30.48;17.20;;;8.80;99.90;;;;;;6123738;23;20006;-72
2023/02/22 09:13:49;;;;;;;30.45;17.70;;;8.90;99.90;;;;;;6122535;23;20013;-72
2023/02/22 09:16:15;;;;;;;28.38;17.60;;;8.90;99.90;;;;;;6123695;23;20014;-72
2023/02/22 09:18:40;;;;;;;25.42;16.73;;;9.00;99.90;;;;;;6123356;23;20423;-72
2023/02/22 09:21:06;;;;;;;27.98;17.00;;;9.00;99.90;;;;;;6123514;23;20010;-72
2023/02/22 09:23:32;;;;;;;27.42;16.55;;;9.10;99.90;;;;;;6125734;23;20029;-72
2023/02/22 09:26:00;;;;;;;25.05;16.45;;;9.10;99.90;;;;;;6098848;23;20005;-72
2023/02/22 09:28:26;;;;;;;25.10;15.15;;;9.30;99.90;;;;;;6126415;23;20436;-71
2023/02/22 09:30:52;;;;;;;26.27;16.65;;;9.20;99.90;;;;;;6124220;23;20002;-71
2023/02/22 09:33:20;;;;;;;25.85;16.20;;;9.30;99.90;;;;;;6125347;23;20077;-72
2023/02/22 09:35:48;;;;;;;24.77;16.10;;;9.30;99.90;;;;;;6124281;23;20002;-71
2023/02/22 09:38:19;;;;;;;25.38;15.40;;;9.20;99.90;;;;;;6125577;23;20029;-71
2023/02/22 09:40:49;;;;;;;26.88;16.73;;;9.40;99.90;;;;;;6126397;23;20430;-72
2023/02/22 09:43:30;;;;;;;22.08;14.57;;;9.40;99.90;;;;;;6126202;23;20027;-71
2023/02/22 09:46:01;;;;;;;25.17;16.00;;;9.40;99.90;;;;;;6125638;23;20438;-72
2023/02/22 09:48:30;;;;;;;25.57;15.10;;;9.70;99.90;;;;;;6126550;23;20081;-72
2023/02/22 09:50:59;;;;;;;28.35;16.17;;;9.70;99.90;;;;;;6125462;23;19998;-71
2023/02/22 09:53:36;;;;;;;23.45;14.52;;;9.90;99.90;;;;;;6125400;23;20010;-72
2023/02/22 09:56:11;;;;;;;27.13;15.95;;;10.10;99.90;;;;;;6100024;23;20029;-71
2023/02/22 09:58:43;;;;;;;22.35;14.60;;;10.10;99.90;;;;;;6100770;23;20010;-71
2023/02/22 10:01:13;;;;;;;21.23;14.70;;;10.30;99.90;;;;;;6126621;23;20308;-72
2023/02/22 10:04:20;;;;;;;22.35;14.18;;;10.20;99.90;;;;;;6124154;23;20002;-71
2023/02/22 10:07:04;;;;;;;20.75;13.38;;;10.30;99.90;;;;;;6120432;23;20017;-72
2023/02/22 10:21:54;;;;;;;21.33;16.48;;;10.30;99.90;;;;;;5060812;28;20395;-76
2023/02/22 10:24:37;;;;;;;24.00;15.10;;;10.30;99.90;;;;;;5062497;27;20040;-76
2023/02/22 10:27:05;;;;;;;;;;;10.50;99.90;;;;;;5060547;27;20481;-73
2023/02/22 10:29:41;;;;;;;25.13;15.77;;;10.80;99.90;;;;;;5045913;27;19968;-75
2023/02/22 10:32:16;;;;;;;22.30;14.95;;;10.90;99.90;;;;;;5052821;27;20033;-75
2023/02/22 10:34:54;;;;;;;26.80;16.67;;;11.10;99.90;;;;;;5054741;27;20018;-76
2023/02/22 10:37:30;;;;;;;22.67;16.33;;;11.20;99.90;;;;;;5060019;27;20033;-76
2023/02/22 10:40:16;;;;;;;23.60;15.43;;;11.40;99.90;;;;;;5050464;27;20021;-76
2023/02/22 10:42:42;;;;;;;24.60;16.02;;;11.30;99.90;;;;;;5054669;27;20025;-74
2023/02/22 10:45:27;;;;;;;22.48;15.77;;;11.30;99.90;;;;;;5055816;27;20766;-74
2023/02/22 10:47:57;;;;;;;24.60;15.07;;;11.40;99.90;;;;;;5064955;27;21042;-74
2023/02/22 10:50:30;;;;;;;22.00;13.50;;;11.60;99.90;;;;;;5057496;27;20591;-74
2023/02/22 10:52:55;;;;;;;16.45;13.07;;;11.70;99.90;;;;;;5053070;27;20021;-77
2023/02/22 10:55:21;;;;;;;19.15;14.48;;;11.80;99.90;;;;;;5052045;27;20090;-73
2023/02/22 10:57:50;;;;;;;21.20;14.75;;;11.80;99.90;;;;;;5054567;27;22508;-72
2023/02/22 11:00:18;;;;;;;20.25;14.40;;;11.90;99.90;;;;;;5057122;27;20049;-76
2023/02/22 11:02:58;;;;;;;22.15;14.60;;;11.90;99.90;;;;;;5060695;27;20036;-77
2023/02/22 11:05:37;;;;;;;19.75;14.27;;;12.10;99.90;;;;;;5063073;27;20021;-72
2023/02/22 11:08:20;;;;;;;22.77;14.18;;;12.20;99.90;;;;;;5055315;27;20109;-72
2023/02/22 11:11:00;;;;;;;21.38;13.45;;;12.30;99.90;;;;;;5057292;27;20044;-73
2023/02/22 11:13:33;;;;;;;26.83;14.27;;;12.40;99.90;;;;;;5054251;27;20059;-73
2023/02/22 11:16:18;;;;;;;23.33;13.55;;;12.60;99.90;;;;;;5058104;27;20112;-75
2023/02/22 11:18:45;;;;;;;20.42;13.48;;;12.70;99.90;;;;;;5060879;27;20086;-71
2023/02/22 11:21:12;;;;;;;20.38;12.98;;;12.70;99.90;;;;;;5060972;27;20067;-77
2023/02/22 11:23:41;;;;;;;22.90;13.70;;;12.70;99.90;;;;;;5048629;27;20021;-74
2023/02/22 11:26:19;;;;;;;17.30;12.10;;;12.80;99.90;;;;;;5042116;27;20029;-74
2023/02/22 11:28:55;;;;;;;23.70;12.57;;;12.90;99.90;;;;;;5050563;27;20033;-72
2023/02/22 11:31:24;;;;;;;20.08;13.25;;;12.90;99.90;;;;;;5040540;27;20033;-72
2023/02/22 11:33:54;;;;;;;21.40;14.52;;;12.90;99.90;;;;;;5045045;27;20086;-72
2023/02/22 11:36:31;;;;;;;19.73;13.98;;;13.00;99.90;;;;;;5039557;27;20039;-72
2023/02/22 11:39:04;;;;;;;18.92;13.45;;;13.10;99.90;;;;;;5057672;27;20073;-73
2023/02/22 11:41:33;;;;;;;;;;;13.10;99.90;;;;;;5042606;27;20048;-72
2023/02/22 11:44:23;;;;;;;20.25;13.07;;;13.20;99.90;;;;;;5042551;27;19913;-72
2023/02/22 11:46:50;;;;;;;25.25;15.40;;;13.30;99.90;;;;;;5042937;27;20021;-73
2023/02/22 11:49:17;;;;;;;23.17;16.27;;;13.30;99.90;;;;;;5041081;27;20103;-72
2023/02/22 11:51:54;;;;;;;24.08;14.25;;;13.30;99.90;;;;;;5045089;27;20021;-73
2023/02/22 11:54:28;;;;;;;25.05;15.77;;;13.30;99.90;;;;;;5052952;27;20040;-73
2023/02/22 11:57:29;;;;;;;20.90;16.40;;;13.40;99.90;;;;;;5044397;27;20496;-73
2023/02/22 12:00:23;;;;;;;20.58;16.10;;;13.40;99.90;;;;;;5045328;27;20025;-74
2023/02/22 12:03:25;;;;;;;24.58;17.70;;;13.50;99.90;;;;;;5045330;27;20035;-74
2023/02/22 12:06:14;;;;;;;25.63;16.77;;;13.50;99.90;;;;;;5057821;27;20057;-74
2023/02/22 12:09:12;;;;;;;23.23;17.10;;;13.50;99.90;;;;;;5051538;27;20079;-74
2023/02/22 12:11:50;;;;;;;22.08;15.57;;;13.60;99.90;;;;;;5052384;27;20041;-74
2023/02/22 12:14:53;;;;;;;26.40;16.92;;;13.60;99.90;;;;;;5047377;27;20030;-74
2023/02/22 12:17:39;;;;;;;24.30;16.20;;;13.50;99.90;;;;;;5045145;27;20024;-74
2023/02/22 12:20:14;;;;;;;27.92;16.55;;;13.60;99.90;;;;;;5038902;27;20038;-73
2023/02/22 12:22:53;;;;;;;23.42;15.32;;;13.70;99.90;;;;;;5045990;27;20369;-75
2023/02/22 12:25:25;;;;;;;22.63;16.10;;;13.70;99.90;;;;;;5056976;27;20087;-73
2023/02/22 12:27:57;;;;;;;24.15;15.98;;;13.70;99.90;;;;;;5042657;27;20089;-73
2023/02/22 12:30:25;;;;;;;22.67;15.02;;;13.70;99.90;;;;;;5042119;27;20029;-74
2023/02/22 12:32:54;;;;;;;31.67;22.85;;;13.70;99.90;;;;;;5042559;27;20036;-74
2023/02/22 12:35:24;;;;;;;23.05;16.45;;;13.70;99.90;;;;;;5048580;27;20025;-74
2023/02/22 12:38:03;;;;;;;24.08;17.33;;;13.70;99.90;;;;;;5048082;27;20093;-75
2023/02/22 12:40:36;;;;;;;23.10;16.10;;;13.60;99.90;;;;;;5038579;27;20021;-74
2023/02/22 12:43:12;;;;;;;27.15;16.65;;;13.50;99.90;;;;;;5041505;27;20036;-75
2023/02/22 12:46:12;;;;;;;23.92;16.63;;;13.50;99.90;;;;;;5050443;27;20128;-74
2023/02/22 12:48:59;;;;;;;26.83;17.63;;;13.50;99.90;;;;;;5021575;27;20080;-74
2023/02/22 12:51:25;;;;;;;24.75;17.92;;;13.40;99.90;;;;;;5051016;27;20094;-74
2023/02/22 12:54:05;;;;;;;27.85;18.80;;;13.40;99.90;;;;;;5043904;27;20092;-74
2023/02/22 12:56:37;;;;;;;28.83;19.92;;;13.40;99.90;;;;;;5036566;27;20076;-74
2023/02/22 12:59:37;;;;;;;31.58;20.70;;;13.30;99.90;;;;;;5042894;27;20044;-74
2023/02/22 13:02:16;;;;;;;38.47;22.70;;;13.30;99.90;;;;;;5036827;27;20025;-74